Lowville, New York
Current Conditions -  °F | °C
As of 10:58 PM on Friday 26 Dec 2014 (Local Time) from KGTB Reporting Station
Overcast Overcast  
Wind Chill:   Ceiling: 4100
Heat Index:   Visibility: 10mi
Dew Point: -4°   Wind: 7mph
Humidity: 53%   Direction: 240°WSW
Pressure: 30.12"   Gusts: NA
Location:  43.79°N, 75.49°W
Report Text: KGTB 270358Z AUTO 24006KT 10SM OVC041 05/M04 A3012 RMK AO2 SLP205 T00451043
Loading
Personal Weather Stations






























Interactive Weather Map New forecast layout! Learn more

10-Day Weather Forecast

Advertisements
Track Severe Weather on mobile